Time;durP1;ratioP1;P1;durP2;ratioP2;P2;SDS_P1;SDS_P2;PMS_P1;PMS_P2;Temp;Humidity;BMP_temperature;BMP_pressure;BME280_temperature;BME280_humidity;BME280_pressure;Samples;Min_cycle;Max_cycle;Signal;HPM_P1;HPM_P2
2022/01/06 00:00:46;;;;;;;;;;;;;;;8.53;85.29;100858.34;5033807;28;20015;-53
2022/01/06 00:03:14;;;;;;;;;;;;;;;8.50;85.38;100858.03;5045715;28;19952;-53
2022/01/06 00:05:41;;;;;;;;;;;;;;;8.49;85.35;100870.28;5054930;28;20261;-52
2022/01/06 00:08:07;;;;;;;;;;;;;;;8.50;85.33;100860.81;5054686;28;19920;-52
2022/01/06 00:10:34;;;;;;;;;;;;;;;8.48;85.36;100876.94;5052195;28;20020;-52
2022/01/06 00:13:16;;;;;;;;;;;;;;;8.44;85.26;100873.81;5055071;28;20011;-49
2022/01/06 00:16:02;;;;;;;;;;;;;;;8.37;85.20;100883.41;5051294;28;19933;-53
2022/01/06 00:23:42;;;;;;;;;;;;;;;8.25;84.96;100870.47;5047589;28;20365;-52
2022/01/06 00:26:09;;;;;;;;;;;;;;;8.21;84.91;100866.53;5053644;28;20015;-49
2022/01/06 00:28:36;;;;;;;;;;;;;;;8.20;84.68;100873.19;5054276;28;20345;-53
2022/01/06 00:31:04;;;;;;;;;;;;;;;8.16;84.68;100874.78;5054621;28;19921;-55
2022/01/06 00:33:31;;;;;;;;;;;;;;;8.11;84.46;100871.13;5037109;28;20461;-53
2022/01/06 00:35:58;;;;;;;;;;;;;;;8.07;84.63;100879.13;5050481;28;19927;-53
2022/01/06 00:38:26;;;;;;;;;;;;;;;8.11;84.96;100883.09;5054168;28;20008;-53
2022/01/06 00:40:53;;;;;;;;;;;;;;;8.12;85.32;100878.34;5054512;28;20331;-51
2022/01/06 00:43:19;;;;;;;;;;;;;;;8.14;85.09;100878.97;5034879;28;19927;-52
2022/01/06 00:45:46;;;;;;;;;;;;;;;8.13;85.30;100868.91;5033970;28;19927;-51
2022/01/06 00:48:13;;;;;;;;;;;;;;;8.09;84.96;100874.13;5033091;28;19967;-54
2022/01/06 00:50:41;;;;;;;;;;;;;;;8.05;85.08;100872.97;5034239;28;20019;-53
2022/01/06 00:53:11;;;;;;;;;;;;;;;7.99;84.89;100880.38;5033999;28;19975;-49
2022/01/06 00:55:38;;;;;;;;;;;;;;;7.99;84.56;100882.34;5033835;28;19927;-54
2022/01/06 00:58:05;;;;;;;;;;;;;;;7.98;84.50;100877.88;5033711;28;19999;-51
2022/01/06 01:00:39;;;;;;;;;;;;;;;7.96;84.39;100868.94;5034460;28;20342;-52
2022/01/06 01:03:12;;;;;;;;;;;;;;;7.93;84.31;100872.22;5033731;28;19968;-49
2022/01/06 01:05:39;;;;;;;;;;;;;;;7.90;84.41;100876.38;5033407;28;19964;-52
2022/01/06 01:08:06;;;;;;;;;;;;;;;7.90;84.37;100878.28;5033542;28;20015;-51
2022/01/06 01:10:33;;;;;;;;;;;;;;;7.91;84.39;100882.78;5033646;28;20023;-51
2022/01/06 01:13:00;;;;;;;;;;;;;;;7.87;84.34;100873.28;5033135;28;20015;-48
2022/01/06 01:15:28;;;;;;;;;;;;;;;7.83;84.49;100870.16;5045434;28;20352;-50
2022/01/06 01:18:03;;;;;;;;;;;;;;;7.81;84.24;100886.25;5039778;28;20261;-50
2022/01/06 01:20:31;;;;;;;;;;;;;;;7.76;84.27;100880.59;5033504;28;20027;-51
2022/01/06 01:22:58;;;;;;;;;;;;;;;7.72;84.31;100882.19;5033598;28;20043;-50
2022/01/06 01:25:24;;;;;;;;;;;;;;;7.68;84.54;100883.81;5033322;28;19925;-50
2022/01/06 01:27:54;;;;;;;;;;;;;;;7.67;84.69;100885.75;5033001;28;20019;-53
2022/01/06 01:30:28;;;;;;;;;;;;;;;7.66;84.64;100888.75;5033607;28;19965;-51
2022/01/06 01:32:56;;;;;;;;;;;;;;;7.65;84.41;100879.59;5035116;28;20013;-50
2022/01/06 01:35:24;;;;;;;;;;;;;;;7.63;84.48;100879.00;5034400;28;20486;-51
2022/01/06 01:37:50;;;;;;;;;;;;;;;7.61;84.33;100878.41;5033183;28;20011;-51
2022/01/06 01:40:17;;;;;;;;;;;;;;;7.59;84.25;100875.91;5033150;28;20463;-49
2022/01/06 01:42:44;;;;;;;;;;;;;;;7.58;84.26;100873.34;5032975;28;20025;-50
2022/01/06 01:45:10;;;;;;;;;;;;;;;7.58;84.15;100871.41;5033167;28;19979;-51
2022/01/06 01:47:43;;;;;;;;;;;;;;;7.55;84.20;100868.31;5033179;28;20424;-51
2022/01/06 01:50:18;;;;;;;;;;;;;;;7.56;84.39;100876.41;5033066;28;19964;-52
2022/01/06 01:52:45;;;;;;;;;;;;;;;7.62;84.50;100874.53;5048153;28;20338;-50
2022/01/06 01:55:13;;;;;;;;;;;;;;;7.68;84.57;100884.63;5052730;28;20463;-51
2022/01/06 01:57:40;;;;;;;;;;;;;;;7.71;84.47;100877.75;5038134;28;19928;-52
2022/01/06 02:00:09;;;;;;;;;;;;;;;7.72;84.60;100884.97;5031996;28;20003;-51
2022/01/06 02:02:36;;;;;;;;;;;;;;;7.70;84.54;100882.47;5052628;28;20384;-52
2022/01/06 02:05:03;;;;;;;;;;;;;;;7.71;84.35;100880.53;5052626;28;19982;-49
2022/01/06 02:07:32;;;;;;;;;;;;;;;7.72;84.40;100880.25;5051661;28;20433;-51
2022/01/06 02:09:58;;;;;;;;;;;;;;;7.68;84.29;100881.88;5050742;28;19921;-52
2022/01/06 02:12:30;;;;;;;;;;;;;;;7.62;84.31;100890.38;5032614;28;20016;-50
2022/01/06 02:14:57;;;;;;;;;;;;;;;7.53;84.37;100893.59;5032505;28;20428;-51
2022/01/06 02:17:24;;;;;;;;;;;;;;;7.47;84.42;100891.81;5045615;28;19964;-50
2022/01/06 02:19:52;;;;;;;;;;;;;;;7.43;84.55;100890.63;5052426;28;19952;-51
2022/01/06 02:22:19;;;;;;;;;;;;;;;7.42;84.34;100899.19;5052629;28;20028;-49
2022/01/06 02:24:46;;;;;;;;;;;;;;;7.36;84.31;100895.50;5050359;28;19970;-51
2022/01/06 02:27:13;;;;;;;;;;;;;;;7.33;84.31;100901.56;5052305;28;19947;-50
2022/01/06 02:29:39;;;;;;;;;;;;;;;7.27;84.37;100900.63;5052317;28;20007;-50
2022/01/06 02:32:07;;;;;;;;;;;;;;;7.24;84.47;100891.94;5034616;28;20326;-51
2022/01/06 02:34:33;;;;;;;;;;;;;;;7.21;84.49;100901.59;5042451;28;19968;-49
2022/01/06 02:37:01;;;;;;;;;;;;;;;7.20;84.44;100908.28;5052400;28;20432;-48
2022/01/06 02:39:27;;;;;;;;;;;;;;;7.20;84.23;100905.50;5051272;28;20011;-49
2022/01/06 02:41:54;;;;;;;;;;;;;;;7.17;84.36;100908.75;5036044;28;20015;-51
2022/01/06 02:44:25;;;;;;;;;;;;;;;7.15;84.22;100908.19;5032476;28;20378;-50
2022/01/06 02:46:53;;;;;;;;;;;;;;;7.08;84.25;100891.69;5032522;28;19931;-50
2022/01/06 02:49:19;;;;;;;;;;;;;;;7.06;84.28;100893.84;5032182;28;19927;-52
2022/01/06 02:51:46;;;;;;;;;;;;;;;7.06;84.47;100895.78;5032206;28;20012;-53
2022/01/06 02:54:14;;;;;;;;;;;;;;;7.07;84.56;100900.25;5032494;28;19999;-50
2022/01/06 02:56:43;;;;;;;;;;;;;;;7.11;84.55;100896.75;5032330;28;19971;-54
2022/01/06 02:59:10;;;;;;;;;;;;;;;7.14;84.54;100898.16;5032749;28;19972;-50
2022/01/06 03:01:41;;;;;;;;;;;;;;;7.16;84.64;100904.31;5032090;28;19975;-51
2022/01/06 03:04:08;;;;;;;;;;;;;;;7.12;84.31;100903.13;5032166;28;19921;-49
2022/01/06 03:06:35;;;;;;;;;;;;;;;7.06;84.38;100898.56;5032272;28;20004;-51
2022/01/06 03:09:02;;;;;;;;;;;;;;;7.00;84.61;100883.72;5031788;28;19924;-52
2022/01/06 03:11:29;;;;;;;;;;;;;;;6.95;84.52;100885.59;5034398;28;19921;-51
2022/01/06 03:13:56;;;;;;;;;;;;;;;6.94;84.42;100884.75;5036096;28;20004;-50
2022/01/06 03:16:23;;;;;;;;;;;;;;;6.97;84.55;100884.22;5036276;28;19992;-52
2022/01/06 03:18:49;;;;;;;;;;;;;;;7.02;84.62;100886.28;5036116;28;19921;-51
2022/01/06 03:21:17;;;;;;;;;;;;;;;7.02;84.50;100886.28;5035647;28;19996;-51
2022/01/06 03:23:44;;;;;;;;;;;;;;;7.00;84.17;100888.44;5035614;28;19976;-51
2022/01/06 03:26:11;;;;;;;;;;;;;;;6.91;84.30;100881.63;5052067;28;20024;-53
2022/01/06 03:28:39;;;;;;;;;;;;;;;6.89;84.40;100887.41;5049977;28;20020;-51
2022/01/06 03:31:06;;;;;;;;;;;;;;;6.90;84.38;100883.53;5035633;28;20004;-52
2022/01/06 03:33:33;;;;;;;;;;;;;;;6.97;84.67;100872.28;5035782;28;19932;-50
2022/01/06 03:36:00;;;;;;;;;;;;;;;7.08;84.83;100879.72;5035910;28;20250;-47
2022/01/06 03:38:27;;;;;;;;;;;;;;;7.19;84.94;100873.25;5035697;28;20007;-52
2022/01/06 03:40:53;;;;;;;;;;;;;;;7.30;85.04;100863.16;5035391;28;20020;-51
2022/01/06 03:43:20;;;;;;;;;;;;;;;7.35;85.05;100875.22;5053713;28;20357;-50
2022/01/06 03:45:47;;;;;;;;;;;;;;;7.38;84.92;100867.47;5055025;28;19920;-52
2022/01/06 03:48:13;;;;;;;;;;;;;;;7.39;84.86;100869.16;5055158;28;19924;-52
2022/01/06 03:50:41;;;;;;;;;;;;;;;7.40;84.84;100870.84;5037064;28;20008;-51
2022/01/06 03:53:08;;;;;;;;;;;;;;;7.44;84.99;100870.06;5035075;28;20007;-50
2022/01/06 03:55:36;;;;;;;;;;;;;;;7.52;85.10;100868.81;5035268;28;19921;-52
2022/01/06 03:58:03;;;;;;;;;;;;;;;7.58;84.95;100876.13;5034681;28;20019;-51
2022/01/06 04:00:30;;;;;;;;;;;;;;;7.60;84.75;100876.75;5035173;28;19921;-52
2022/01/06 04:02:57;;;;;;;;;;;;;;;7.58;84.76;100865.03;5043569;28;19944;-52
2022/01/06 04:05:24;;;;;;;;;;;;;;;7.59;84.76;100864.78;5054588;28;20065;-52
2022/01/06 04:07:50;;;;;;;;;;;;;;;7.63;84.99;100853.16;5054258;28;19920;-52
2022/01/06 04:10:17;;;;;;;;;;;;;;;7.66;85.09;100847.06;5041266;28;20008;-51
2022/01/06 04:12:43;;;;;;;;;;;;;;;7.71;85.05;100848.00;5034771;28;19967;-51
2022/01/06 04:15:12;;;;;;;;;;;;;;;7.77;85.00;100855.31;5034749;28;20514;-53
2022/01/06 04:17:40;;;;;;;;;;;;;;;7.83;85.38;100847.91;5053840;28;19921;-53
2022/01/06 04:20:07;;;;;;;;;;;;;;;7.81;85.01;100853.72;5054352;28;19964;-51
2022/01/06 04:22:35;;;;;;;;;;;;;;;7.74;84.87;100857.78;5054694;28;20007;-52
2022/01/06 04:25:02;;;;;;;;;;;;;;;7.67;84.84;100855.16;5042689;28;19921;-52
2022/01/06 04:27:29;;;;;;;;;;;;;;;7.65;84.70;100862.91;5034416;28;20015;-49
2022/01/06 04:29:56;;;;;;;;;;;;;;;7.52;84.69;100863.25;5039718;28;20000;-52
2022/01/06 04:32:22;;;;;;;;;;;;;;;7.39;84.66;100867.22;5047374;28;20449;-49
2022/01/06 04:34:49;;;;;;;;;;;;;;;7.26;84.40;100882.28;5054136;28;19971;-51
2022/01/06 04:37:16;;;;;;;;;;;;;;;7.11;84.47;100871.75;5046160;28;19921;-51
2022/01/06 04:39:42;;;;;;;;;;;;;;;7.01;84.35;100870.69;5034560;28;20004;-49
2022/01/06 04:42:09;;;;;;;;;;;;;;;6.87;84.43;100871.00;5034745;28;20385;-52
2022/01/06 04:44:35;;;;;;;;;;;;;;;6.84;84.44;100874.28;5034386;28;19921;-51
2022/01/06 04:47:03;;;;;;;;;;;;;;;6.79;84.23;100876.09;5034145;28;20031;-51
2022/01/06 04:49:35;;;;;;;;;;;;;;;6.71;83.51;100869.03;5034245;28;19921;-50
2022/01/06 04:52:02;;;;;;;;;;;;;;;6.60;83.77;100867.97;5035121;28;20345;-50
2022/01/06 04:54:28;;;;;;;;;;;;;;;6.53;83.93;100864.50;5033846;28;20348;-52
2022/01/06 04:56:55;;;;;;;;;;;;;;;6.43;84.32;100860.66;5034277;28;19921;-50
2022/01/06 04:59:22;;;;;;;;;;;;;;;6.34;84.70;100874.09;5034649;28;20011;-49
2022/01/06 05:01:48;;;;;;;;;;;;;;;6.24;84.98;100863.63;5033823;28;20007;-51
2022/01/06 05:04:15;;;;;;;;;;;;;;;6.12;85.20;100871.97;5034127;28;19921;-52
2022/01/06 05:06:42;;;;;;;;;;;;;;;6.01;85.11;100872.81;5033965;28;20451;-51
2022/01/06 05:09:09;;;;;;;;;;;;;;;5.89;85.48;100878.34;5033525;28;19927;-52
2022/01/06 05:11:35;;;;;;;;;;;;;;;5.80;85.67;100882.53;5033781;28;19971;-52
2022/01/06 05:14:02;;;;;;;;;;;;;;;5.74;85.86;100883.50;5033644;28;19927;-48
2022/01/06 05:16:28;;;;;;;;;;;;;;;5.64;86.09;100881.34;5033922;28;19964;-51
2022/01/06 05:18:55;;;;;;;;;;;;;;;5.58;86.17;100887.00;5033476;28;19921;-49
2022/01/06 05:21:22;;;;;;;;;;;;;;;5.52;86.26;100894.34;5033459;28;20453;-51
2022/01/06 05:23:50;;;;;;;;;;;;;;;5.52;86.43;100893.50;5033802;28;20054;-50
2022/01/06 05:26:16;;;;;;;;;;;;;;;5.51;86.76;100903.75;5033331;28;19971;-49
2022/01/06 05:28:43;;;;;;;;;;;;;;;5.58;86.74;100909.16;5033148;28;19968;-47
2022/01/06 05:31:11;;;;;;;;;;;;;;;5.61;86.54;100911.47;5033316;28;19928;-49
2022/01/06 05:33:38;;;;;;;;;;;;;;;5.60;86.48;100907.81;5032614;28;19925;-49
2022/01/06 05:36:05;;;;;;;;;;;;;;;5.57;86.20;100908.34;5045970;28;20342;-53
2022/01/06 05:38:31;;;;;;;;;;;;;;;5.56;86.14;100909.41;5053188;28;20327;-53
2022/01/06 05:40:58;;;;;;;;;;;;;;;5.50;85.80;100898.41;5052957;28;20361;-51
2022/01/06 05:43:25;;;;;;;;;;;;;;;5.45;86.00;100905.53;5040251;28;19965;-53
2022/01/06 05:45:54;;;;;;;;;;;;;;;5.38;85.87;100910.34;5033214;28;20004;-53
2022/01/06 05:48:23;;;;;;;;;;;;;;;5.34;86.00;100916.59;5033506;28;19951;-50
2022/01/06 05:50:49;;;;;;;;;;;;;;;5.29;86.20;100911.75;5032726;28;20020;-49
2022/01/06 05:53:16;;;;;;;;;;;;;;;5.30;86.28;100920.88;5032893;28;19960;-50
2022/01/06 05:55:43;;;;;;;;;;;;;;;5.32;86.43;100925.13;5032725;28;19971;-50
2022/01/06 05:58:09;;;;;;;;;;;;;;;5.40;86.76;100935.00;5032856;28;20388;-51
2022/01/06 06:00:36;;;;;;;;;;;;;;;5.47;87.10;100936.63;5032768;28;20448;-52
2022/01/06 06:03:04;;;;;;;;;;;;;;;5.53;86.64;100942.28;5032720;28;19921;-49
2022/01/06 06:05:31;;;;;;;;;;;;;;;5.56;86.54;100948.19;5033027;28;19925;-49
2022/01/06 06:07:57;;;;;;;;;;;;;;;5.59;86.90;100953.25;5032351;28;20012;-52
2022/01/06 06:10:24;;;;;;;;;;;;;;;5.63;87.08;100956.38;5032816;28;19924;-50
2022/01/06 06:12:52;;;;;;;;;;;;;;;5.64;87.08;100963.59;5032745;28;20007;-51
2022/01/06 06:15:20;;;;;;;;;;;;;;;5.62;86.93;100965.78;5032772;28;19948;-52
2022/01/06 06:17:46;;;;;;;;;;;;;;;5.55;86.34;100965.88;5032452;28;19921;-51
2022/01/06 06:20:13;;;;;;;;;;;;;;;5.50;86.54;100967.66;5032473;28;20011;-51
2022/01/06 06:22:40;;;;;;;;;;;;;;;5.45;86.42;100972.00;5033054;28;20408;-51
2022/01/06 06:25:07;;;;;;;;;;;;;;;5.42;86.87;100972.47;5032799;28;19964;-47
2022/01/06 06:27:34;;;;;;;;;;;;;;;5.40;86.65;100969.13;5032536;28;20012;-50
2022/01/06 06:30:00;;;;;;;;;;;;;;;5.35;86.49;100977.28;5032244;28;20004;-52
2022/01/06 06:32:30;;;;;;;;;;;;;;;5.33;86.67;100973.88;5032626;28;20327;-51
2022/01/06 06:34:57;;;;;;;;;;;;;;;5.34;86.66;100970.06;5032718;28;19982;-48
2022/01/06 06:37:24;;;;;;;;;;;;;;;5.35;86.94;100982.81;5032331;28;19961;-51
2022/01/06 06:39:50;;;;;;;;;;;;;;;5.37;86.80;100985.34;5032904;28;19966;-52
2022/01/06 06:42:17;;;;;;;;;;;;;;;5.40;86.97;100988.50;5050784;28;20012;-49
2022/01/06 06:44:44;;;;;;;;;;;;;;;5.47;87.38;100988.41;5052480;28;19999;-52
2022/01/06 06:47:11;;;;;;;;;;;;;;;5.56;87.96;101005.50;5039640;28;19921;-50
2022/01/06 06:49:38;;;;;;;;;;;;;;;5.67;87.94;101001.91;5068117;28;19988;-51
2022/01/06 06:52:05;;;;;;;;;;;;;;;5.81;88.24;101008.09;5035926;28;19971;-51
2022/01/06 06:54:31;;;;;;;;;;;;;;;5.94;88.54;101008.75;5036081;28;19964;-52
2022/01/06 06:56:59;;;;;;;;;;;;;;;6.16;88.72;101005.44;5037164;28;19921;-52
2022/01/06 06:59:25;;;;;;;;;;;;;;;6.26;88.50;101002.06;5036566;28;20372;-52
2022/01/06 07:01:52;;;;;;;;;;;;;;;6.36;88.51;101011.47;5036068;28;20012;-51
2022/01/06 07:04:19;;;;;;;;;;;;;;;6.54;88.77;101012.41;5035954;28;19921;-51
2022/01/06 07:07:06;;;;;;;;;;;;;;;6.73;88.64;101016.72;5036139;28;19920;-53
2022/01/06 07:09:33;;;;;;;;;;;;;;;6.72;88.09;101015.03;5036086;28;19931;-50
2022/01/06 07:12:00;;;;;;;;;;;;;;;6.61;87.81;101013.13;5036057;28;19921;-50
2022/01/06 07:14:26;;;;;;;;;;;;;;;6.51;87.54;101018.44;5036606;28;19996;-48
2022/01/06 07:16:54;;;;;;;;;;;;;;;6.38;87.25;101023.13;5048008;28;20024;-50
2022/01/06 07:19:20;;;;;;;;;;;;;;;6.31;87.09;101024.34;5039870;28;20364;-51
2022/01/06 07:21:47;;;;;;;;;;;;;;;6.22;87.19;101032.16;5035788;28;20019;-52
2022/01/06 07:24:14;;;;;;;;;;;;;;;6.22;87.54;101040.50;5035457;28;20016;-50
2022/01/06 07:26:40;;;;;;;;;;;;;;;6.35;88.18;101036.66;5035500;28;19969;-52
2022/01/06 07:29:07;;;;;;;;;;;;;;;6.50;88.47;101034.25;5035479;28;20000;-50
2022/01/06 07:31:34;;;;;;;;;;;;;;;6.62;88.25;101037.84;5036067;28;20325;-49
2022/01/06 07:34:00;;;;;;;;;;;;;;;6.60;87.84;101039.19;5035407;28;19994;-51
2022/01/06 07:36:27;;;;;;;;;;;;;;;6.49;87.29;101037.25;5035398;28;20000;-52
2022/01/06 07:38:54;;;;;;;;;;;;;;;6.39;87.23;101038.72;5035417;28;20020;-51
2022/01/06 07:41:21;;;;;;;;;;;;;;;6.29;86.33;101037.59;5035701;28;20296;-53
2022/01/06 07:43:48;;;;;;;;;;;;;;;6.10;85.62;101029.41;5035149;28;20011;-53
2022/01/06 07:46:15;;;;;;;;;;;;;;;5.98;85.48;101028.53;5046052;28;20430;-50
2022/01/06 07:48:55;;;;;;;;;;;;;;;5.96;85.79;101033.47;5042625;28;19933;-51
2022/01/06 07:51:22;;;;;;;;;;;;;;;5.98;86.03;101041.53;5034969;28;19968;-50
2022/01/06 07:53:49;;;;;;;;;;;;;;;6.05;86.91;101048.69;5035348;28;20021;-53
2022/01/06 07:56:16;;;;;;;;;;;;;;;6.21;87.72;101041.59;5034587;28;20015;-51
2022/01/06 07:58:43;;;;;;;;;;;;;;;6.33;87.34;101042.44;5035045;28;19944;-50
2022/01/06 08:01:10;;;;;;;;;;;;;;;6.25;85.58;101023.38;5035293;28;19921;-49
2022/01/06 08:03:37;;;;;;;;;;;;;;;6.04;85.03;101023.97;5035034;28;19921;-51
2022/01/06 08:06:04;;;;;;;;;;;;;;;5.88;85.26;101037.41;5035371;28;19964;-53
2022/01/06 08:08:31;;;;;;;;;;;;;;;5.80;85.52;101034.97;5034867;28;19972;-51
2022/01/06 08:10:57;;;;;;;;;;;;;;;5.80;85.50;101046.06;5038419;28;19927;-53
2022/01/06 08:13:24;;;;;;;;;;;;;;;5.81;85.76;101042.22;5054591;28;19972;-52
2022/01/06 08:15:51;;;;;;;;;;;;;;;5.81;85.82;101042.22;5041641;28;20477;-49
2022/01/06 08:18:18;;;;;;;;;;;;;;;5.82;85.72;101043.91;5034587;28;20324;-51
2022/01/06 08:20:44;;;;;;;;;;;;;;;5.82;85.50;101038.38;5039195;28;19921;-52
2022/01/06 08:23:11;;;;;;;;;;;;;;;5.86;85.71;101036.81;5037413;28;19960;-53
2022/01/06 08:25:38;;;;;;;;;;;;;;;5.92;85.65;101049.75;5034351;28;19964;-51
2022/01/06 08:28:07;;;;;;;;;;;;;;;5.99;85.64;101044.09;5034220;28;20056;-52
2022/01/06 08:30:34;;;;;;;;;;;;;;;6.03;84.91;101041.69;5034731;28;20097;-50
2022/01/06 08:33:01;;;;;;;;;;;;;;;6.07;84.97;101045.66;5034532;28;20007;-53
2022/01/06 08:35:29;;;;;;;;;;;;;;;6.07;84.47;101046.50;5034317;28;19975;-51
2022/01/06 08:37:56;;;;;;;;;;;;;;;6.06;84.50;101055.91;5034207;28;20395;-53
2022/01/06 08:40:22;;;;;;;;;;;;;;;6.07;84.86;101054.00;5035417;28;20015;-51
2022/01/06 08:42:49;;;;;;;;;;;;;;;6.06;84.53;101066.16;5034458;28;20332;-51
2022/01/06 08:45:18;;;;;;;;;;;;;;;6.05;84.86;101065.34;5034357;28;20007;-51
2022/01/06 08:47:46;;;;;;;;;;;;;;;6.10;85.62;101064.59;5034349;28;19921;-53
2022/01/06 08:50:15;;;;;;;;;;;;;;;6.18;85.86;101078.13;5034574;28;19963;-53
2022/01/06 08:52:42;;;;;;;;;;;;;;;6.36;86.70;101079.97;5052474;28;19920;-52
2022/01/06 08:55:08;;;;;;;;;;;;;;;6.50;87.07;101070.31;5053619;28;19974;-51
2022/01/06 08:57:35;;;;;;;;;;;;;;;6.68;87.01;101083.22;5034218;28;20379;-48
2022/01/06 09:00:04;;;;;;;;;;;;;;;6.86;87.05;101083.06;5033418;28;20016;-50
2022/01/06 09:02:30;;;;;;;;;;;;;;;6.85;86.61;101081.41;5033829;28;20381;-52
2022/01/06 09:04:59;;;;;;;;;;;;;;;6.84;86.55;101076.94;5033280;28;20395;-50
2022/01/06 09:07:25;;;;;;;;;;;;;;;6.80;86.01;101084.06;5033505;28;19956;-52
2022/01/06 09:09:52;;;;;;;;;;;;;;;6.79;86.41;101087.06;5032819;28;20007;-52
2022/01/06 09:12:19;;;;;;;;;;;;;;;6.83;86.62;101086.34;5033471;28;20012;-57
2022/01/06 09:14:45;;;;;;;;;;;;;;;6.86;86.23;101085.84;5033548;28;19968;-53
2022/01/06 09:17:13;;;;;;;;;;;;;;;6.83;86.02;101097.44;5033574;28;19975;-53
2022/01/06 09:19:40;;;;;;;;;;;;;;;6.81;85.89;101110.72;5033485;28;20361;-54
2022/01/06 09:22:06;;;;;;;;;;;;;;;6.81;86.13;101113.50;5033580;28;19921;-57
2022/01/06 09:24:34;;;;;;;;;;;;;;;6.91;86.53;101123.16;5033389;28;19976;-50
2022/01/06 09:27:00;;;;;;;;;;;;;;;6.99;86.63;101120.00;5033303;28;19968;-53
2022/01/06 09:29:27;;;;;;;;;;;;;;;7.03;86.00;101124.81;5033136;28;20015;-53
2022/01/06 09:31:54;;;;;;;;;;;;;;;7.01;85.74;101123.38;5032997;28;19968;-49
2022/01/06 09:34:21;;;;;;;;;;;;;;;7.04;86.09;101122.91;5033075;28;20396;-51
2022/01/06 09:36:48;;;;;;;;;;;;;;;7.14;86.53;101142.56;5032677;28;19927;-51
2022/01/06 09:39:14;;;;;;;;;;;;;;;7.24;86.51;101134.47;5033092;28;20018;-50
2022/01/06 09:41:42;;;;;;;;;;;;;;;7.32;86.37;101128.53;5033415;28;20377;-53
2022/01/06 09:44:09;;;;;;;;;;;;;;;7.44;86.79;101138.78;5032991;28;20047;-49
2022/01/06 09:46:56;;;;;;;;;;;;;;;7.54;86.60;101125.94;5033610;28;20284;-52
2022/01/06 09:49:24;;;;;;;;;;;;;;;7.67;86.65;101135.94;5032934;28;20365;-52
2022/01/06 09:51:51;;;;;;;;;;;;;;;7.84;86.60;101139.59;5048355;28;19921;-53
2022/01/06 09:54:18;;;;;;;;;;;;;;;8.10;86.55;101142.03;5052542;28;19920;-52
2022/01/06 09:56:45;;;;;;;;;;;;;;;8.19;84.98;101140.53;5052746;28;19974;-52
2022/01/06 09:59:12;;;;;;;;;;;;;;;8.14;84.15;101146.00;5052618;28;19956;-48
2022/01/06 10:01:39;;;;;;;;;;;;;;;8.18;85.42;101138.84;5046591;28;20004;-50
2022/01/06 10:04:18;;;;;;;;;;;;;;;8.37;85.48;101145.84;5033626;28;20308;-50
2022/01/06 10:06:56;;;;;;;;;;;;;;;8.46;85.68;101152.72;5032331;28;19963;-53
2022/01/06 10:09:23;;;;;;;;;;;;;;;8.58;86.11;101155.47;5032753;28;19940;-49
2022/01/06 10:11:53;;;;;;;;;;;;;;;8.73;86.32;101161.25;5032907;28;20347;-51
2022/01/06 10:14:30;;;;;;;;;;;;;;;8.93;86.84;101163.53;5032478;28;20012;-51
2022/01/06 10:16:57;;;;;;;;;;;;;;;8.99;86.41;101161.66;5032903;28;19925;-53
2022/01/06 10:19:24;;;;;;;;;;;;;;;9.02;85.80;101166.72;5032393;28;19932;-52
2022/01/06 10:21:57;;;;;;;;;;;;;;;8.94;85.21;101165.22;5033303;28;19991;-49
2022/01/06 10:24:25;;;;;;;;;;;;;;;8.97;85.54;101167.50;5032755;28;20013;-53
2022/01/06 10:26:54;;;;;;;;;;;;;;;9.04;85.31;101166.47;5032424;28;19975;-52
2022/01/06 10:29:21;;;;;;;;;;;;;;;9.14;85.55;101184.19;5032464;28;20377;-50
2022/01/06 10:31:48;;;;;;;;;;;;;;;9.33;86.09;101181.09;5032488;28;20028;-49
2022/01/06 10:34:15;;;;;;;;;;;;;;;9.46;85.95;101184.34;5032345;28;19921;-53
2022/01/06 10:36:41;;;;;;;;;;;;;;;9.77;87.00;101184.75;5032438;28;19960;-50
2022/01/06 10:39:08;;;;;;;;;;;;;;;10.05;87.17;101186.50;5032822;28;19953;-53
2022/01/06 10:41:37;;;;;;;;;;;;;;;10.42;88.01;101199.75;5032408;28;20399;-50
2022/01/06 10:44:05;;;;;;;;;;;;;;;10.84;88.57;101187.88;5032547;28;20007;-49
2022/01/06 10:46:35;;;;;;;;;;;;;;;11.29;88.82;101183.72;5032243;28;20044;-49
2022/01/06 10:49:05;;;;;;;;;;;;;;;11.60;88.24;101181.94;5032326;28;19956;-51
2022/01/06 10:51:36;;;;;;;;;;;;;;;11.66;87.14;101186.44;5037412;28;20015;-52
2022/01/06 10:54:04;;;;;;;;;;;;;;;11.60;87.35;101179.97;5032293;28;20360;-52
2022/01/06 10:56:31;;;;;;;;;;;;;;;11.70;87.50;101173.59;5033006;28;19928;-52
2022/01/06 10:58:58;;;;;;;;;;;;;;;11.83;85.76;101166.66;5032285;28;20443;-50
2022/01/06 11:01:26;;;;;;;;;;;;;;;11.81;83.08;101164.13;5041879;28;20011;-51
2022/01/06 11:03:53;;;;;;;;;;;;;;;11.82;81.58;101165.78;5041260;28;19928;-52
2022/01/06 11:06:20;;;;;;;;;;;;;;;11.65;80.51;101164.31;5032001;28;19944;-52
2022/01/06 11:08:47;;;;;;;;;;;;;;;11.69;82.57;101171.03;5031905;28;20008;-51
2022/01/06 11:11:27;;;;;;;;;;;;;;;11.85;82.14;101162.47;5032392;28;20420;-52
2022/01/06 11:13:54;;;;;;;;;;;;;;;11.88;82.33;101163.88;5031694;28;19979;-53
2022/01/06 11:16:21;;;;;;;;;;;;;;;11.88;80.56;101161.09;5032116;28;19925;-52
2022/01/06 11:18:49;;;;;;;;;;;;;;;11.80;81.91;101153.22;5032042;28;20395;-51
2022/01/06 11:21:18;;;;;;;;;;;;;;;11.96;80.85;101154.09;5031777;28;19944;-53
2022/01/06 11:23:45;;;;;;;;;;;;;;;11.75;78.62;101147.56;5031918;28;19928;-49
2022/01/06 11:26:17;;;;;;;;;;;;;;;11.41;77.74;101159.16;5031914;28;20361;-52
2022/01/06 11:28:54;;;;;;;;;;;;;;;11.18;79.35;101159.59;5036059;28;19924;-51
2022/01/06 11:31:22;;;;;;;;;;;;;;;11.25;81.31;101160.22;5052223;28;20444;-58
2022/01/06 11:33:50;;;;;;;;;;;;;;;11.42;80.69;101163.66;5055277;28;19967;-52
2022/01/06 11:36:20;;;;;;;;;;;;;;;11.44;81.79;101157.78;5055580;28;19974;-53
2022/01/06 11:38:49;;;;;;;;;;;;;;;11.39;81.42;101161.41;5041156;28;20385;-52
2022/01/06 11:41:16;;;;;;;;;;;;;;;11.38;81.84;101165.28;5035320;28;20012;-50
2022/01/06 11:43:44;;;;;;;;;;;;;;;11.51;81.83;101159.22;5035220;28;20408;-53
2022/01/06 11:46:12;;;;;;;;;;;;;;;11.65;82.84;101158.72;5036061;28;19921;-51
2022/01/06 11:48:47;;;;;;;;;;;;;;;11.59;81.77;101144.72;5048775;28;20018;-50
2022/01/06 11:51:24;;;;;;;;;;;;;;;11.53;81.29;101150.56;5055036;28;20015;-51
2022/01/06 11:53:51;;;;;;;;;;;;;;;11.60;81.26;101152.00;5040279;28;19979;-51
2022/01/06 11:56:18;;;;;;;;;;;;;;;11.75;82.23;101145.63;5034813;28;20027;-52
2022/01/06 11:58:56;;;;;;;;;;;;;;;11.91;81.72;101152.16;5035314;28;20015;-51
2022/01/06 12:01:22;;;;;;;;;;;;;;;11.98;82.45;101147.13;5034942;28;19972;-52
2022/01/06 12:03:50;;;;;;;;;;;;;;;12.19;83.50;101148.00;5035440;28;19921;-50
2022/01/06 12:06:22;;;;;;;;;;;;;;;12.94;85.55;101148.34;5041564;28;20015;-48
2022/01/06 12:08:49;;;;;;;;;;;;;;;13.99;86.60;101150.28;5053436;28;20023;-52
2022/01/06 12:11:25;;;;;;;;;;;;;;;14.49;85.59;101138.16;5054723;28;20023;-51
2022/01/06 12:13:55;;;;;;;;;;;;;;;14.56;85.10;101135.88;5054617;28;20456;-53
2022/01/06 12:16:29;;;;;;;;;;;;;;;14.30;84.26;101143.66;5054030;28;19978;-51
2022/01/06 12:18:57;;;;;;;;;;;;;;;13.87;83.33;101144.16;5034656;28;19925;-53
2022/01/06 12:21:24;;;;;;;;;;;;;;;13.78;84.63;101150.66;5034611;28;20008;-51
2022/01/06 12:24:01;;;;;;;;;;;;;;;13.90;85.08;101139.94;5034980;28;20359;-51
2022/01/06 12:26:28;;;;;;;;;;;;;;;14.09;85.12;101137.31;5034616;28;19928;-52
2022/01/06 12:28:55;;;;;;;;;;;;;;;14.45;85.75;101135.09;5034361;28;19967;-50
2022/01/06 12:31:23;;;;;;;;;;;;;;;14.83;85.77;101133.41;5034387;28;19921;-52
2022/01/06 12:33:50;;;;;;;;;;;;;;;14.84;84.87;101140.72;5034000;28;19920;-51
2022/01/06 12:36:18;;;;;;;;;;;;;;;14.67;84.40;101129.91;5034217;28;19960;-53
2022/01/06 12:38:45;;;;;;;;;;;;;;;14.50;84.33;101126.66;5033820;28;19960;-52
2022/01/06 12:41:16;;;;;;;;;;;;;;;14.56;85.40;101128.28;5034677;28;19945;-52
2022/01/06 12:43:43;;;;;;;;;;;;;;;15.00;85.21;101130.16;5033025;28;20040;-51
2022/01/06 12:46:10;;;;;;;;;;;;;;;15.22;85.06;101126.00;5034386;28;19964;-52
2022/01/06 12:48:42;;;;;;;;;;;;;;;15.09;83.96;101124.72;5033840;28;19921;-52
2022/01/06 12:51:10;;;;;;;;;;;;;;;15.01;82.64;101116.91;5033926;28;20020;-52
2022/01/06 12:53:38;;;;;;;;;;;;;;;15.15;83.91;101109.47;5042925;28;20023;-51